Hauptseite
METAR-TAF:

METAR-TAF

Flughäfen :

RAF Shawbury

Shawbury, England

Breite: 52-48N, Länge: 002-40W, Höhe: 76 m

Beobachtung

Neuester Wetterbericht von vor 15 Minuten, um 12:50 UTC
Wind 7 kt aus Nord
Temperatur 21°C
Luftfeuchtigkeit 40%
Luftdruck 1036 hPa
Sichtweite 10 km oder mehr
keine Wolken unter 1500 m und keine Kumulonimbus oder Gewitterwolken

METAR: EGOS 271250Z 35007KT CAVOK 21/07 Q1036 NOSIG RMK BLU BLU

Zeit: 14:05 (13:05 UTC)

Prognose

Neuester Wetterbericht von vor 2 Stunden und 19 Minuten, um 10:46 UTC
Gültige Prognose vom 27 um 12 UTC bis 27 um 19 UTC
Wind 5 kt aus Nord
Sichtweite 10 km oder mehr
keine Wolken unter 1500 m und keine Kumulonimbus oder Gewitterwolken

TAF: EGOS 271046Z 2712/2719 35005KT CAVOK

Wetterbeobachtungen und Prognosen von mehr als 4000 Flughäfen (METAR und TAF Bericht).

Die verfügbaren Stationen werden durch gelbe und rote Markierungen auf der Karte dargestellt.

Führen Sie die Maus auf sie, um den Namen der Station zu sehen.

Darauf klicken, um die Beobachtung von Wetterbeobachtungen und Prognosen zu sehen.

Um die Karte zu ändern : klicken Sie auf den grünen Tasten mit einem schwarzen Kreuz Zum Vergrößern, auf den grünen Button mit einem Gedankenstrich zu verkleinern, oder auf die grünen Pfeile für benachbarte Karten.


METAR-TAF: